sensor_id;sensor_type;location;lat;lon;timestamp;pressure;altitude;pressure_sealevel;temperature;humidity
36138;BME280;67787;50.074;21.904;2023-05-10T00:02:00;99650.31;;;4.55;50.42
36138;BME280;67787;50.074;21.904;2023-05-10T00:04:28;99648.70;;;4.51;50.63
36138;BME280;67787;50.074;21.904;2023-05-10T00:06:56;99647.52;;;4.46;50.76
36138;BME280;67787;50.074;21.904;2023-05-10T00:09:24;99652.58;;;4.46;50.56
36138;BME280;67787;50.074;21.904;2023-05-10T00:11:52;99650.52;;;4.49;50.74
36138;BME280;67787;50.074;21.904;2023-05-10T00:14:19;99643.09;;;4.46;50.72
36138;BME280;67787;50.074;21.904;2023-05-10T00:16:47;99646.89;;;4.39;50.73
36138;BME280;67787;50.074;21.904;2023-05-10T00:19:15;99643.64;;;4.31;51.08
36138;BME280;67787;50.074;21.904;2023-05-10T00:21:43;99643.17;;;4.25;50.77
36138;BME280;67787;50.074;21.904;2023-05-10T00:24:11;99639.98;;;4.26;50.60
36138;BME280;67787;50.074;21.904;2023-05-10T00:26:39;99639.19;;;4.28;51.05
36138;BME280;67787;50.074;21.904;2023-05-10T00:29:06;99638.10;;;4.25;51.13
36138;BME280;67787;50.074;21.904;2023-05-10T00:31:34;99635.98;;;4.21;51.22
36138;BME280;67787;50.074;21.904;2023-05-10T00:34:02;99636.46;;;4.17;51.16
36138;BME280;67787;50.074;21.904;2023-05-10T00:36:30;99634.41;;;4.15;51.19
36138;BME280;67787;50.074;21.904;2023-05-10T00:38:59;99634.02;;;4.16;51.30
36138;BME280;67787;50.074;21.904;2023-05-10T00:41:26;99634.33;;;4.18;51.47
36138;BME280;67787;50.074;21.904;2023-05-10T00:43:54;99630.33;;;4.16;51.42
36138;BME280;67787;50.074;21.904;2023-05-10T00:46:22;99630.62;;;4.13;51.39
36138;BME280;67787;50.074;21.904;2023-05-10T00:48:50;99633.91;;;4.05;51.41
36138;BME280;67787;50.074;21.904;2023-05-10T00:51:18;99634.42;;;3.96;51.29
36138;BME280;67787;50.074;21.904;2023-05-10T00:53:46;99630.52;;;3.92;51.57
36138;BME280;67787;50.074;21.904;2023-05-10T00:56:14;99636.09;;;3.93;51.71
36138;BME280;67787;50.074;21.904;2023-05-10T00:58:42;99632.67;;;3.96;51.76
36138;BME280;67787;50.074;21.904;2023-05-10T01:01:11;99632.83;;;3.96;51.83
36138;BME280;67787;50.074;21.904;2023-05-10T01:03:40;99628.52;;;3.94;52.00
36138;BME280;67787;50.074;21.904;2023-05-10T01:06:08;99630.46;;;3.89;51.71
36138;BME280;67787;50.074;21.904;2023-05-10T01:08:37;99628.52;;;3.84;51.84
36138;BME280;67787;50.074;21.904;2023-05-10T01:11:05;99625.30;;;3.86;51.93
36138;BME280;67787;50.074;21.904;2023-05-10T01:13:36;99622.04;;;3.88;51.91
36138;BME280;67787;50.074;21.904;2023-05-10T01:16:05;99624.67;;;3.88;52.01
36138;BME280;67787;50.074;21.904;2023-05-10T01:18:39;99622.79;;;3.83;52.27
36138;BME280;67787;50.074;21.904;2023-05-10T01:35:26;99613.67;;;3.72;52.71
36138;BME280;67787;50.074;21.904;2023-05-10T01:40:39;99610.73;;;3.77;52.42
36138;BME280;67787;50.074;21.904;2023-05-10T01:43:17;99604.74;;;3.77;52.42
36138;BME280;67787;50.074;21.904;2023-05-10T01:46:00;99606.48;;;3.73;52.98
36138;BME280;67787;50.074;21.904;2023-05-10T01:48:33;99605.61;;;3.62;52.80
36138;BME280;67787;50.074;21.904;2023-05-10T01:51:01;99609.78;;;3.58;53.00
36138;BME280;67787;50.074;21.904;2023-05-10T01:53:31;99609.02;;;3.55;52.88
36138;BME280;67787;50.074;21.904;2023-05-10T01:56:01;99606.13;;;3.52;53.05
36138;BME280;67787;50.074;21.904;2023-05-10T01:58:32;99607.46;;;3.54;53.30
36138;BME280;67787;50.074;21.904;2023-05-10T02:01:03;99603.64;;;3.53;53.05
36138;BME280;67787;50.074;21.904;2023-05-10T02:03:32;99603.17;;;3.52;53.06
36138;BME280;67787;50.074;21.904;2023-05-10T02:06:01;99606.50;;;3.56;53.17
36138;BME280;67787;50.074;21.904;2023-05-10T02:08:31;99600.95;;;3.61;53.47
36138;BME280;67787;50.074;21.904;2023-05-10T02:11:01;99604.63;;;3.61;53.17
36138;BME280;67787;50.074;21.904;2023-05-10T02:13:32;99597.20;;;3.63;53.51
36138;BME280;67787;50.074;21.904;2023-05-10T02:16:03;99596.10;;;3.64;53.71
36138;BME280;67787;50.074;21.904;2023-05-10T02:18:34;99597.66;;;3.64;53.51
36138;BME280;67787;50.074;21.904;2023-05-10T02:21:04;99593.86;;;3.63;53.42
36138;BME280;67787;50.074;21.904;2023-05-10T02:23:32;99593.36;;;3.62;53.49
36138;BME280;67787;50.074;21.904;2023-05-10T02:26:02;99591.64;;;3.66;53.58
36138;BME280;67787;50.074;21.904;2023-05-10T02:28:31;99591.52;;;3.69;53.67
36138;BME280;67787;50.074;21.904;2023-05-10T02:31:01;99588.98;;;3.66;53.78
36138;BME280;67787;50.074;21.904;2023-05-10T02:33:30;99586.70;;;3.62;53.89
36138;BME280;67787;50.074;21.904;2023-05-10T02:36:01;99591.10;;;3.61;53.76
36138;BME280;67787;50.074;21.904;2023-05-10T02:38:30;99586.94;;;3.60;53.44
36138;BME280;67787;50.074;21.904;2023-05-10T02:40:59;99585.91;;;3.59;53.53
36138;BME280;67787;50.074;21.904;2023-05-10T02:43:30;99587.14;;;3.59;53.34
36138;BME280;67787;50.074;21.904;2023-05-10T02:45:58;99588.08;;;3.57;53.72
36138;BME280;67787;50.074;21.904;2023-05-10T02:48:26;99586.29;;;3.53;53.88
36138;BME280;67787;50.074;21.904;2023-05-10T02:50:56;99593.94;;;3.50;54.12
36138;BME280;67787;50.074;21.904;2023-05-10T02:53:31;99595.56;;;3.49;54.07
36138;BME280;67787;50.074;21.904;2023-05-10T02:56:05;99598.02;;;3.44;54.04
36138;BME280;67787;50.074;21.904;2023-05-10T02:58:35;99600.33;;;3.43;54.13
36138;BME280;67787;50.074;21.904;2023-05-10T03:01:03;99604.61;;;3.41;54.09
36138;BME280;67787;50.074;21.904;2023-05-10T03:03:32;99602.59;;;3.38;54.34
36138;BME280;67787;50.074;21.904;2023-05-10T03:05:59;99599.95;;;3.38;54.31
36138;BME280;67787;50.074;21.904;2023-05-10T03:08:27;99598.78;;;3.36;54.35
36138;BME280;67787;50.074;21.904;2023-05-10T03:14:25;99596.52;;;3.31;54.46
36138;BME280;67787;50.074;21.904;2023-05-10T03:16:52;99597.41;;;3.36;54.35
36138;BME280;67787;50.074;21.904;2023-05-10T03:19:29;99595.61;;;3.42;54.33
36138;BME280;67787;50.074;21.904;2023-05-10T03:22:02;99594.56;;;3.47;54.46
36138;BME280;67787;50.074;21.904;2023-05-10T03:24:34;99595.59;;;3.48;54.53
36138;BME280;67787;50.074;21.904;2023-05-10T03:27:04;99593.58;;;3.45;55.03
36138;BME280;67787;50.074;21.904;2023-05-10T03:29:52;99592.74;;;3.44;54.40
36138;BME280;67787;50.074;21.904;2023-05-10T03:32:22;99593.91;;;3.50;54.92
36138;BME280;67787;50.074;21.904;2023-05-10T03:34:50;99597.88;;;3.52;54.92
36138;BME280;67787;50.074;21.904;2023-05-10T03:37:18;99596.67;;;3.57;54.80
36138;BME280;67787;50.074;21.904;2023-05-10T03:39:46;99596.70;;;3.62;54.98
36138;BME280;67787;50.074;21.904;2023-05-10T03:42:13;99597.23;;;3.66;54.62
36138;BME280;67787;50.074;21.904;2023-05-10T03:44:41;99595.27;;;3.67;55.29
36138;BME280;67787;50.074;21.904;2023-05-10T03:47:09;99589.50;;;3.67;55.31
36138;BME280;67787;50.074;21.904;2023-05-10T03:49:37;99587.28;;;3.69;55.12
36138;BME280;67787;50.074;21.904;2023-05-10T03:52:05;99584.25;;;3.76;55.32
36138;BME280;67787;50.074;21.904;2023-05-10T03:54:34;99584.10;;;3.80;55.28
36138;BME280;67787;50.074;21.904;2023-05-10T03:57:01;99582.86;;;3.86;55.36
36138;BME280;67787;50.074;21.904;2023-05-10T03:59:30;99583.81;;;3.93;55.50
36138;BME280;67787;50.074;21.904;2023-05-10T04:01:58;99582.24;;;3.97;55.40
36138;BME280;67787;50.074;21.904;2023-05-10T04:04:26;99579.27;;;4.02;55.57
36138;BME280;67787;50.074;21.904;2023-05-10T04:06:54;99580.08;;;4.04;55.65
36138;BME280;67787;50.074;21.904;2023-05-10T04:09:22;99581.31;;;4.09;55.24
36138;BME280;67787;50.074;21.904;2023-05-10T04:11:50;99579.65;;;4.15;55.71
36138;BME280;67787;50.074;21.904;2023-05-10T04:14:17;99583.48;;;4.21;55.47
36138;BME280;67787;50.074;21.904;2023-05-10T04:16:45;99586.05;;;4.27;55.65
36138;BME280;67787;50.074;21.904;2023-05-10T04:19:13;99584.77;;;4.33;56.03
36138;BME280;67787;50.074;21.904;2023-05-10T04:21:41;99586.80;;;4.39;55.90
36138;BME280;67787;50.074;21.904;2023-05-10T04:24:09;99587.23;;;4.46;56.00
36138;BME280;67787;50.074;21.904;2023-05-10T04:26:36;99584.95;;;4.56;56.04
36138;BME280;67787;50.074;21.904;2023-05-10T04:29:04;99588.13;;;4.64;55.96
36138;BME280;67787;50.074;21.904;2023-05-10T04:31:32;99587.17;;;4.75;56.09
36138;BME280;67787;50.074;21.904;2023-05-10T04:34:17;99586.91;;;4.86;56.12
36138;BME280;67787;50.074;21.904;2023-05-10T04:36:46;99589.98;;;4.97;56.15
36138;BME280;67787;50.074;21.904;2023-05-10T04:39:13;99587.81;;;5.07;56.23
36138;BME280;67787;50.074;21.904;2023-05-10T04:41:41;99587.89;;;5.18;56.21
36138;BME280;67787;50.074;21.904;2023-05-10T04:44:09;99591.44;;;5.29;56.37
36138;BME280;67787;50.074;21.904;2023-05-10T04:46:37;99590.08;;;5.41;56.48
36138;BME280;67787;50.074;21.904;2023-05-10T04:49:04;99590.66;;;5.52;56.63
36138;BME280;67787;50.074;21.904;2023-05-10T04:51:33;99588.89;;;5.61;56.41
36138;BME280;67787;50.074;21.904;2023-05-10T04:54:00;99585.38;;;5.68;56.68
36138;BME280;67787;50.074;21.904;2023-05-10T04:56:33;99578.89;;;5.76;56.75
36138;BME280;67787;50.074;21.904;2023-05-10T04:59:01;99584.10;;;5.85;56.82
36138;BME280;67787;50.074;21.904;2023-05-10T05:01:29;99584.63;;;5.97;56.81
36138;BME280;67787;50.074;21.904;2023-05-10T05:03:57;99590.25;;;6.10;56.79
36138;BME280;67787;50.074;21.904;2023-05-10T05:06:25;99584.14;;;6.20;56.77
36138;BME280;67787;50.074;21.904;2023-05-10T05:08:55;99584.71;;;6.31;56.82
36138;BME280;67787;50.074;21.904;2023-05-10T05:14:22;99577.86;;;6.50;56.96
36138;BME280;67787;50.074;21.904;2023-05-10T05:16:52;99577.38;;;6.56;57.27
36138;BME280;67787;50.074;21.904;2023-05-10T05:19:20;99576.98;;;6.64;57.06
36138;BME280;67787;50.074;21.904;2023-05-10T05:21:54;99576.02;;;6.73;57.09
36138;BME280;67787;50.074;21.904;2023-05-10T05:24:25;99573.68;;;6.81;57.04
36138;BME280;67787;50.074;21.904;2023-05-10T05:27:01;99570.19;;;6.88;57.07
36138;BME280;67787;50.074;21.904;2023-05-10T05:29:32;99571.23;;;6.95;57.11
36138;BME280;67787;50.074;21.904;2023-05-10T05:32:09;99574.46;;;7.01;57.12
36138;BME280;67787;50.074;21.904;2023-05-10T05:34:51;99571.98;;;7.09;57.28
36138;BME280;67787;50.074;21.904;2023-05-10T05:37:20;99574.44;;;7.16;57.27
36138;BME280;67787;50.074;21.904;2023-05-10T05:39:54;99575.38;;;7.22;57.25
36138;BME280;67787;50.074;21.904;2023-05-10T05:42:22;99573.77;;;7.30;57.38
36138;BME280;67787;50.074;21.904;2023-05-10T05:44:50;99575.84;;;7.37;57.37
36138;BME280;67787;50.074;21.904;2023-05-10T05:47:18;99572.22;;;7.46;57.54
36138;BME280;67787;50.074;21.904;2023-05-10T05:49:46;99570.73;;;7.54;57.17
36138;BME280;67787;50.074;21.904;2023-05-10T05:52:14;99570.74;;;7.61;57.46
36138;BME280;67787;50.074;21.904;2023-05-10T05:55:00;99567.48;;;7.69;57.45
36138;BME280;67787;50.074;21.904;2023-05-10T05:57:34;99566.33;;;7.78;57.38
36138;BME280;67787;50.074;21.904;2023-05-10T06:00:14;99562.03;;;7.85;57.58
36138;BME280;67787;50.074;21.904;2023-05-10T06:02:51;99571.42;;;7.95;57.50
36138;BME280;67787;50.074;21.904;2023-05-10T06:05:28;99566.81;;;8.02;57.51
36138;BME280;67787;50.074;21.904;2023-05-10T06:07:59;99565.80;;;8.08;57.50
36138;BME280;67787;50.074;21.904;2023-05-10T06:10:30;99564.76;;;8.14;57.59
36138;BME280;67787;50.074;21.904;2023-05-10T06:13:01;99567.11;;;8.23;57.72
36138;BME280;67787;50.074;21.904;2023-05-10T06:15:39;99569.52;;;8.34;57.88
36138;BME280;67787;50.074;21.904;2023-05-10T06:18:24;99567.55;;;8.44;57.81
36138;BME280;67787;50.074;21.904;2023-05-10T06:21:00;99565.50;;;8.53;57.83
36138;BME280;67787;50.074;21.904;2023-05-10T06:23:33;99566.10;;;8.61;57.85
36138;BME280;67787;50.074;21.904;2023-05-10T06:26:01;99568.10;;;8.69;57.79
36138;BME280;67787;50.074;21.904;2023-05-10T06:28:30;99570.02;;;8.79;57.90
36138;BME280;67787;50.074;21.904;2023-05-10T06:31:02;99566.77;;;8.90;57.78
36138;BME280;67787;50.074;21.904;2023-05-10T06:33:30;99564.23;;;9.00;58.07
36138;BME280;67787;50.074;21.904;2023-05-10T06:35:59;99562.49;;;9.12;57.93
36138;BME280;67787;50.074;21.904;2023-05-10T06:38:29;99564.59;;;9.21;57.93
36138;BME280;67787;50.074;21.904;2023-05-10T06:41:01;99562.18;;;9.29;57.85
36138;BME280;67787;50.074;21.904;2023-05-10T06:43:32;99560.79;;;9.41;58.05
36138;BME280;67787;50.074;21.904;2023-05-10T06:46:03;99556.39;;;9.55;57.90
36138;BME280;67787;50.074;21.904;2023-05-10T06:48:30;99556.87;;;9.65;57.85
36138;BME280;67787;50.074;21.904;2023-05-10T06:50:58;99558.63;;;9.74;57.84
36138;BME280;67787;50.074;21.904;2023-05-10T06:53:26;99556.34;;;9.82;57.91
36138;BME280;67787;50.074;21.904;2023-05-10T06:55:55;99557.66;;;9.93;57.87
36138;BME280;67787;50.074;21.904;2023-05-10T06:58:28;99556.58;;;10.07;57.91
36138;BME280;67787;50.074;21.904;2023-05-10T07:01:02;99558.10;;;10.20;58.10
36138;BME280;67787;50.074;21.904;2023-05-10T07:03:36;99553.54;;;10.30;57.84
36138;BME280;67787;50.074;21.904;2023-05-10T07:06:10;99554.86;;;10.37;57.84
36138;BME280;67787;50.074;21.904;2023-05-10T07:08:57;99554.43;;;10.41;57.91
36138;BME280;67787;50.074;21.904;2023-05-10T07:11:26;99554.25;;;10.47;57.74
36138;BME280;67787;50.074;21.904;2023-05-10T07:13:54;99551.13;;;10.55;57.78
36138;BME280;67787;50.074;21.904;2023-05-10T07:16:25;99553.89;;;10.61;57.88
36138;BME280;67787;50.074;21.904;2023-05-10T07:18:53;99551.83;;;10.71;57.77
36138;BME280;67787;50.074;21.904;2023-05-10T07:21:21;99550.06;;;10.79;57.56
36138;BME280;67787;50.074;21.904;2023-05-10T07:23:51;99548.65;;;10.90;57.65
36138;BME280;67787;50.074;21.904;2023-05-10T07:26:19;99548.89;;;11.00;57.58
36138;BME280;67787;50.074;21.904;2023-05-10T07:28:48;99549.15;;;11.09;57.45
36138;BME280;67787;50.074;21.904;2023-05-10T07:31:16;99548.05;;;11.15;57.51
36138;BME280;67787;50.074;21.904;2023-05-10T07:33:44;99554.15;;;11.25;57.72
36138;BME280;67787;50.074;21.904;2023-05-10T07:36:21;99551.38;;;11.32;57.54
36138;BME280;67787;50.074;21.904;2023-05-10T07:38:54;99551.52;;;11.40;57.43
36138;BME280;67787;50.074;21.904;2023-05-10T07:41:35;99551.93;;;11.47;57.36
36138;BME280;67787;50.074;21.904;2023-05-10T07:44:08;99547.95;;;11.51;57.36
36138;BME280;67787;50.074;21.904;2023-05-10T07:46:41;99543.70;;;11.56;57.25
36138;BME280;67787;50.074;21.904;2023-05-10T07:49:16;99548.29;;;11.61;57.20
36138;BME280;67787;50.074;21.904;2023-05-10T07:51:54;99544.09;;;11.68;56.95
36138;BME280;67787;50.074;21.904;2023-05-10T07:54:30;99543.61;;;11.78;56.90
36138;BME280;67787;50.074;21.904;2023-05-10T07:57:00;99541.12;;;11.85;57.04
36138;BME280;67787;50.074;21.904;2023-05-10T07:59:33;99544.08;;;11.94;57.01
36138;BME280;67787;50.074;21.904;2023-05-10T08:02:02;99545.98;;;12.00;56.93
36138;BME280;67787;50.074;21.904;2023-05-10T08:04:39;99547.02;;;12.06;56.84
36138;BME280;67787;50.074;21.904;2023-05-10T08:07:49;99541.97;;;12.17;56.48
36138;BME280;67787;50.074;21.904;2023-05-10T08:10:25;99542.20;;;12.24;56.69
36138;BME280;67787;50.074;21.904;2023-05-10T08:12:55;99547.54;;;12.33;56.60
36138;BME280;67787;50.074;21.904;2023-05-10T08:15:35;99543.11;;;12.41;56.45
36138;BME280;67787;50.074;21.904;2023-05-10T08:18:20;99544.34;;;12.43;56.42
36138;BME280;67787;50.074;21.904;2023-05-10T08:20:50;99546.46;;;12.48;56.32
36138;BME280;67787;50.074;21.904;2023-05-10T08:23:29;99547.88;;;12.51;56.08
36138;BME280;67787;50.074;21.904;2023-05-10T08:26:13;99546.20;;;12.54;55.98
36138;BME280;67787;50.074;21.904;2023-05-10T08:28:44;99553.10;;;12.62;55.82
36138;BME280;67787;50.074;21.904;2023-05-10T08:31:12;99552.27;;;12.74;55.72
36138;BME280;67787;50.074;21.904;2023-05-10T08:33:40;99551.15;;;12.79;55.44
36138;BME280;67787;50.074;21.904;2023-05-10T08:36:35;99549.93;;;12.81;55.33
36138;BME280;67787;50.074;21.904;2023-05-10T08:39:11;99550.23;;;12.87;55.31
36138;BME280;67787;50.074;21.904;2023-05-10T08:41:58;99551.39;;;12.93;55.42
36138;BME280;67787;50.074;21.904;2023-05-10T08:44:36;99544.73;;;12.96;55.23
36138;BME280;67787;50.074;21.904;2023-05-10T08:47:16;99546.05;;;12.98;54.59
36138;BME280;67787;50.074;21.904;2023-05-10T08:49:57;99547.40;;;13.01;54.74
36138;BME280;67787;50.074;21.904;2023-05-10T08:52:32;99545.26;;;13.04;54.59
36138;BME280;67787;50.074;21.904;2023-05-10T08:55:04;99549.84;;;13.06;54.25
36138;BME280;67787;50.074;21.904;2023-05-10T08:57:32;99554.14;;;13.11;54.32
36138;BME280;67787;50.074;21.904;2023-05-10T09:00:01;99551.84;;;13.16;54.53
36138;BME280;67787;50.074;21.904;2023-05-10T09:02:30;99557.86;;;13.21;54.21
36138;BME280;67787;50.074;21.904;2023-05-10T09:04:58;99554.53;;;13.24;54.53
36138;BME280;67787;50.074;21.904;2023-05-10T09:07:27;99555.73;;;13.25;54.40
36138;BME280;67787;50.074;21.904;2023-05-10T09:09:55;99555.31;;;13.26;53.94
36138;BME280;67787;50.074;21.904;2023-05-10T09:12:29;99551.97;;;13.28;54.08
36138;BME280;67787;50.074;21.904;2023-05-10T09:15:02;99552.05;;;13.32;54.05
36138;BME280;67787;50.074;21.904;2023-05-10T09:17:35;99553.37;;;13.33;53.63
36138;BME280;67787;50.074;21.904;2023-05-10T09:20:04;99551.96;;;13.38;53.63
36138;BME280;67787;50.074;21.904;2023-05-10T09:22:54;99549.80;;;13.40;53.33
36138;BME280;67787;50.074;21.904;2023-05-10T09:25:34;99546.57;;;13.41;53.15
36138;BME280;67787;50.074;21.904;2023-05-10T09:28:06;99544.88;;;13.45;52.07
36138;BME280;67787;50.074;21.904;2023-05-10T09:30:36;99545.53;;;13.47;52.41
36138;BME280;67787;50.074;21.904;2023-05-10T09:33:09;99542.06;;;13.46;52.62
36138;BME280;67787;50.074;21.904;2023-05-10T09:35:46;99545.41;;;13.47;52.55
36138;BME280;67787;50.074;21.904;2023-05-10T09:38:22;99538.56;;;13.48;52.14
36138;BME280;67787;50.074;21.904;2023-05-10T09:40:53;99533.70;;;13.48;51.46
36138;BME280;67787;50.074;21.904;2023-05-10T09:43:32;99536.99;;;13.54;51.77
36138;BME280;67787;50.074;21.904;2023-05-10T09:46:10;99537.15;;;13.59;51.75
36138;BME280;67787;50.074;21.904;2023-05-10T09:48:42;99533.46;;;13.61;51.85
36138;BME280;67787;50.074;21.904;2023-05-10T09:51:18;99537.03;;;13.61;51.41
36138;BME280;67787;50.074;21.904;2023-05-10T09:54:16;99533.02;;;13.62;50.83
36138;BME280;67787;50.074;21.904;2023-05-10T09:56:47;99526.20;;;13.65;51.19
36138;BME280;67787;50.074;21.904;2023-05-10T09:59:15;99518.94;;;13.71;51.18
36138;BME280;67787;50.074;21.904;2023-05-10T10:01:56;99523.70;;;13.77;51.21
36138;BME280;67787;50.074;21.904;2023-05-10T10:04:27;99519.90;;;13.82;51.23
36138;BME280;67787;50.074;21.904;2023-05-10T10:07:08;99524.95;;;13.83;50.95
36138;BME280;67787;50.074;21.904;2023-05-10T10:09:39;99521.45;;;13.78;51.10
36138;BME280;67787;50.074;21.904;2023-05-10T10:12:17;99523.40;;;13.71;50.85
36138;BME280;67787;50.074;21.904;2023-05-10T10:14:47;99520.54;;;13.74;50.79
36138;BME280;67787;50.074;21.904;2023-05-10T10:17:25;99514.95;;;13.74;50.51
36138;BME280;67787;50.074;21.904;2023-05-10T10:19:57;99514.11;;;13.74;50.47
36138;BME280;67787;50.074;21.904;2023-05-10T10:22:26;99513.14;;;13.70;50.22
36138;BME280;67787;50.074;21.904;2023-05-10T10:24:59;99511.33;;;13.68;50.44
36138;BME280;67787;50.074;21.904;2023-05-10T10:27:50;99506.86;;;13.73;50.47
36138;BME280;67787;50.074;21.904;2023-05-10T10:33:18;99501.66;;;13.85;49.93
36138;BME280;67787;50.074;21.904;2023-05-10T10:36:08;99498.70;;;13.84;49.73
36138;BME280;67787;50.074;21.904;2023-05-10T10:41:10;99489.80;;;13.97;50.16
36138;BME280;67787;50.074;21.904;2023-05-10T10:47:11;99473.59;;;14.12;50.01
36138;BME280;67787;50.074;21.904;2023-05-10T10:50:06;99469.92;;;14.17;49.81
36138;BME280;67787;50.074;21.904;2023-05-10T10:52:40;99467.16;;;14.20;49.83
36138;BME280;67787;50.074;21.904;2023-05-10T10:55:21;99464.70;;;14.24;49.65
36138;BME280;67787;50.074;21.904;2023-05-10T10:58:33;99459.40;;;14.27;49.66
36138;BME280;67787;50.074;21.904;2023-05-10T11:01:19;99460.34;;;14.35;49.00
36138;BME280;67787;50.074;21.904;2023-05-10T11:04:19;99452.95;;;14.47;49.34
36138;BME280;67787;50.074;21.904;2023-05-10T11:06:51;99444.12;;;14.54;49.48
36138;BME280;67787;50.074;21.904;2023-05-10T11:09:40;99444.67;;;14.59;49.35
36138;BME280;67787;50.074;21.904;2023-05-10T11:12:20;99446.61;;;14.66;48.93
36138;BME280;67787;50.074;21.904;2023-05-10T11:14:57;99443.50;;;14.71;48.96
36138;BME280;67787;50.074;21.904;2023-05-10T11:17:34;99439.45;;;14.72;49.05
36138;BME280;67787;50.074;21.904;2023-05-10T11:20:07;99435.45;;;14.76;48.94
36138;BME280;67787;50.074;21.904;2023-05-10T11:22:54;99428.38;;;14.77;47.86
36138;BME280;67787;50.074;21.904;2023-05-10T11:25:35;99434.30;;;14.77;48.67
36138;BME280;67787;50.074;21.904;2023-05-10T11:28:23;99436.66;;;14.78;48.24
36138;BME280;67787;50.074;21.904;2023-05-10T11:30:58;99440.44;;;14.88;48.67
36138;BME280;67787;50.074;21.904;2023-05-10T11:33:26;99437.59;;;14.93;48.34
36138;BME280;67787;50.074;21.904;2023-05-10T11:35:54;99434.63;;;14.96;47.96
36138;BME280;67787;50.074;21.904;2023-05-10T11:42:45;99424.38;;;15.14;47.32
36138;BME280;67787;50.074;21.904;2023-05-10T11:45:16;99421.48;;;15.14;47.64
36138;BME280;67787;50.074;21.904;2023-05-10T11:47:49;99425.02;;;15.21;47.75
36138;BME280;67787;50.074;21.904;2023-05-10T11:50:23;99423.48;;;15.25;47.72
36138;BME280;67787;50.074;21.904;2023-05-10T11:52:52;99420.80;;;15.28;47.55
36138;BME280;67787;50.074;21.904;2023-05-10T11:55:24;99420.31;;;15.28;47.15
36138;BME280;67787;50.074;21.904;2023-05-10T11:58:02;99419.36;;;15.23;46.86
36138;BME280;67787;50.074;21.904;2023-05-10T12:00:49;99419.96;;;15.20;46.96
36138;BME280;67787;50.074;21.904;2023-05-10T12:03:24;99416.48;;;15.18;46.69
36138;BME280;67787;50.074;21.904;2023-05-10T12:05:57;99412.45;;;15.13;46.85
36138;BME280;67787;50.074;21.904;2023-05-10T12:08:27;99416.02;;;15.13;47.05
36138;BME280;67787;50.074;21.904;2023-05-10T12:11:13;99414.52;;;15.16;46.90
36138;BME280;67787;50.074;21.904;2023-05-10T12:13:48;99410.31;;;15.20;46.86
36138;BME280;67787;50.074;21.904;2023-05-10T12:16:24;99414.01;;;15.24;46.86
36138;BME280;67787;50.074;21.904;2023-05-10T12:18:54;99410.91;;;15.35;46.78
36138;BME280;67787;50.074;21.904;2023-05-10T12:21:30;99412.71;;;15.50;46.76
36138;BME280;67787;50.074;21.904;2023-05-10T12:24:03;99408.95;;;15.58;46.77
36138;BME280;67787;50.074;21.904;2023-05-10T12:26:40;99408.64;;;15.64;46.60
36138;BME280;67787;50.074;21.904;2023-05-10T12:29:18;99408.11;;;15.69;46.56
36138;BME280;67787;50.074;21.904;2023-05-10T12:34:36;99402.87;;;15.60;45.98
36138;BME280;67787;50.074;21.904;2023-05-10T12:37:06;99398.10;;;15.50;46.14
36138;BME280;67787;50.074;21.904;2023-05-10T12:39:44;99390.84;;;15.40;45.24
36138;BME280;67787;50.074;21.904;2023-05-10T12:42:14;99398.68;;;15.36;45.80
36138;BME280;67787;50.074;21.904;2023-05-10T12:44:47;99391.52;;;15.37;45.86
36138;BME280;67787;50.074;21.904;2023-05-10T12:47:18;99390.73;;;15.42;45.48
36138;BME280;67787;50.074;21.904;2023-05-10T12:49:47;99387.75;;;15.49;45.96
36138;BME280;67787;50.074;21.904;2023-05-10T12:52:17;99379.02;;;15.55;45.24
36138;BME280;67787;50.074;21.904;2023-05-10T12:54:47;99378.95;;;15.66;45.68
36138;BME280;67787;50.074;21.904;2023-05-10T12:57:16;99376.24;;;15.78;45.65
36138;BME280;67787;50.074;21.904;2023-05-10T12:59:47;99379.27;;;15.89;45.56
36138;BME280;67787;50.074;21.904;2023-05-10T13:02:21;99375.39;;;15.98;45.51
36138;BME280;67787;50.074;21.904;2023-05-10T13:04:50;99373.93;;;16.02;45.20
36138;BME280;67787;50.074;21.904;2023-05-10T13:07:24;99367.24;;;15.97;44.84
36138;BME280;67787;50.074;21.904;2023-05-10T13:09:58;99367.02;;;15.94;44.97
36138;BME280;67787;50.074;21.904;2023-05-10T13:12:29;99360.85;;;15.92;45.06
36138;BME280;67787;50.074;21.904;2023-05-10T13:15:00;99355.52;;;15.95;44.52
36138;BME280;67787;50.074;21.904;2023-05-10T13:17:28;99359.05;;;15.97;44.54
36138;BME280;67787;50.074;21.904;2023-05-10T13:20:06;99360.90;;;15.98;44.29
36138;BME280;67787;50.074;21.904;2023-05-10T13:22:40;99358.07;;;15.98;44.67
36138;BME280;67787;50.074;21.904;2023-05-10T13:25:12;99356.80;;;15.98;44.73
36138;BME280;67787;50.074;21.904;2023-05-10T13:27:40;99358.84;;;16.01;44.74
36138;BME280;67787;50.074;21.904;2023-05-10T13:30:09;99354.08;;;16.01;44.67
36138;BME280;67787;50.074;21.904;2023-05-10T13:32:37;99351.96;;;16.02;43.83
36138;BME280;67787;50.074;21.904;2023-05-10T13:35:07;99349.62;;;16.06;44.42
36138;BME280;67787;50.074;21.904;2023-05-10T13:37:38;99348.73;;;16.14;44.02
36138;BME280;67787;50.074;21.904;2023-05-10T13:40:12;99347.22;;;16.23;44.19
36138;BME280;67787;50.074;21.904;2023-05-10T13:42:43;99345.83;;;16.28;44.26
36138;BME280;67787;50.074;21.904;2023-05-10T13:45:12;99344.48;;;16.31;44.31
36138;BME280;67787;50.074;21.904;2023-05-10T13:47:40;99344.80;;;16.34;44.02
36138;BME280;67787;50.074;21.904;2023-05-10T13:50:09;99336.64;;;16.31;43.73
36138;BME280;67787;50.074;21.904;2023-05-10T13:52:37;99336.23;;;16.24;43.61
36138;BME280;67787;50.074;21.904;2023-05-10T13:55:04;99335.44;;;16.25;43.88
36138;BME280;67787;50.074;21.904;2023-05-10T13:57:33;99327.84;;;16.28;43.73
36138;BME280;67787;50.074;21.904;2023-05-10T14:00:03;99328.57;;;16.29;43.83
36138;BME280;67787;50.074;21.904;2023-05-10T14:02:32;99327.84;;;16.31;43.79